Time;durP1;ratioP1;P1;durP2;ratioP2;P2;SDS_P1;SDS_P2;PMS_P1;PMS_P2;Temp;Humidity;BMP_temperature;BMP_pressure;BME280_temperature;BME280_humidity;BME280_pressure;Samples;Min_cycle;Max_cycle;Signal;HPM_P1;HPM_P2
2022/04/05 00:00:17;;;;;;;10.63;9.03;;;7.50;90.20;;;;;;5008256;28;20505;-73
2022/04/05 00:03:03;;;;;;;11.67;7.70;;;7.40;89.60;;;;;;5013304;28;20415;-73
2022/04/05 00:05:48;;;;;;;15.57;8.20;;;7.50;91.00;;;;;;5011637;28;20784;-73
2022/04/05 00:08:34;;;;;;;10.17;8.20;;;7.40;91.60;;;;;;5013192;28;20465;-72
2022/04/05 00:11:19;;;;;;;15.60;8.50;;;7.40;92.90;;;;;;5012316;28;20446;-73
2022/04/05 00:14:09;;;;;;;12.43;8.40;;;7.50;94.70;;;;;;5016788;28;20436;-73
2022/04/05 00:16:54;;;;;;;12.63;8.70;;;7.50;94.80;;;;;;5017441;28;20496;-74
2022/04/05 00:19:39;;;;;;;11.37;8.10;;;7.60;95.10;;;;;;5006713;28;20543;-73
2022/04/05 00:22:25;;;;;;;16.47;8.07;;;7.60;94.50;;;;;;5009791;28;20515;-73
2022/04/05 00:25:11;;;;;;;13.07;8.53;;;7.50;94.30;;;;;;5016110;28;20467;-73
2022/04/05 00:27:57;;;;;;;9.67;7.03;;;7.40;95.80;;;;;;5017453;28;20477;-72
2022/04/05 00:30:44;;;;;;;14.97;7.40;;;7.30;97.90;;;;;;5014722;28;20538;-73
2022/04/05 00:33:30;;;;;;;9.30;7.83;;;7.40;99.90;;;;;;5012149;28;20476;-73
2022/04/05 00:36:16;;;;;;;8.20;7.13;;;7.20;99.90;;;;;;5014102;28;20529;-73
2022/04/05 00:39:01;;;;;;;13.73;7.87;;;7.10;99.90;;;;;;5011155;28;20584;-74
2022/04/05 00:41:48;;;;;;;10.80;8.57;;;7.20;99.90;;;;;;5013919;28;20414;-73
2022/04/05 00:44:34;;;;;;;8.60;7.60;;;7.10;99.90;;;;;;5018399;28;20579;-73
2022/04/05 00:47:22;;;;;;;11.73;7.63;;;7.10;99.90;;;;;;5014698;28;20951;-73
2022/04/05 00:50:08;;;;;;;10.90;7.80;;;7.00;99.90;;;;;;5016040;28;20600;-71
2022/04/05 00:52:55;;;;;;;10.53;8.07;;;7.10;99.90;;;;;;5018819;28;20976;-73
2022/04/05 00:55:41;;;;;;;15.40;7.93;;;7.10;99.90;;;;;;5016402;28;21024;-72
2022/04/05 00:58:29;;;;;;;10.73;8.63;;;7.00;99.90;;;;;;5017872;28;20446;-73
2022/04/05 01:01:16;;;;;;;12.73;8.23;;;7.00;99.90;;;;;;5018571;28;20488;-71
2022/04/05 01:04:04;;;;;;;9.50;8.33;;;6.90;99.90;;;;;;5024081;28;20458;-73
2022/04/05 01:06:52;;;;;;;13.83;7.53;;;6.90;99.90;;;;;;5016401;28;20469;-73
2022/04/05 01:09:38;;;;;;;10.00;7.23;;;6.90;99.90;;;;;;5014259;28;20440;-73
2022/04/05 01:12:24;;;;;;;12.77;7.47;;;7.00;99.90;;;;;;5017350;28;20555;-74
2022/04/05 01:15:11;;;;;;;15.23;8.10;;;6.90;99.90;;;;;;5019466;28;20526;-73
2022/04/05 01:17:57;;;;;;;12.37;7.87;;;7.00;99.90;;;;;;5018022;28;20451;-72
2022/04/05 01:20:44;;;;;;;11.33;8.00;;;7.00;99.90;;;;;;5017197;28;20539;-73
2022/04/05 01:23:30;;;;;;;13.30;7.60;;;7.00;99.90;;;;;;5018624;28;20412;-73
2022/04/05 01:26:17;;;;;;;8.80;7.30;;;7.00;99.90;;;;;;5018432;28;20536;-73
2022/04/05 01:29:03;;;;;;;10.43;8.60;;;7.00;99.90;;;;;;5011515;28;20432;-73
2022/04/05 01:31:51;;;;;;;10.30;7.80;;;7.00;99.90;;;;;;5016447;28;20437;-73
2022/04/05 01:34:38;;;;;;;9.97;7.80;;;7.00;99.90;;;;;;5016390;28;20453;-73
2022/04/05 01:37:24;;;;;;;13.23;8.00;;;6.90;99.90;;;;;;5015094;28;20559;-73
2022/04/05 01:40:11;;;;;;;12.97;7.60;;;6.90;99.90;;;;;;5015100;28;20850;-72
2022/04/05 01:42:58;;;;;;;9.90;7.53;;;6.90;99.90;;;;;;5016812;28;20625;-73
2022/04/05 01:45:45;;;;;;;9.70;7.03;;;6.80;99.90;;;;;;5015917;28;20451;-72
2022/04/05 01:48:31;;;;;;;12.93;8.03;;;6.70;99.90;;;;;;5011272;28;20460;-73
2022/04/05 01:51:18;;;;;;;10.10;7.60;;;6.70;99.90;;;;;;5012935;28;20473;-73
2022/04/05 01:54:05;;;;;;;14.83;9.07;;;6.70;99.90;;;;;;5020457;28;20467;-73
2022/04/05 01:56:52;;;;;;;11.63;8.67;;;6.70;99.90;;;;;;5014712;28;20470;-73
2022/04/05 01:59:41;;;;;;;10.00;7.13;;;6.70;99.90;;;;;;5014680;28;20958;-73
2022/04/05 02:02:27;;;;;;;12.37;8.00;;;6.50;99.90;;;;;;5018655;28;20494;-73
2022/04/05 02:05:13;;;;;;;11.67;7.57;;;6.40;99.90;;;;;;5022963;28;20807;-73
2022/04/05 02:07:58;;;;;;;9.67;7.90;;;6.40;99.90;;;;;;5014433;28;20476;-73
2022/04/05 02:10:44;;;;;;;11.10;8.27;;;6.30;99.90;;;;;;5014116;28;20805;-73
2022/04/05 02:13:29;;;;;;;14.53;8.80;;;6.30;99.90;;;;;;5023958;28;20424;-73
2022/04/05 02:16:17;;;;;;;11.73;8.70;;;6.20;99.90;;;;;;5015768;28;20453;-73
2022/04/05 02:19:03;;;;;;;9.90;8.00;;;6.30;99.90;;;;;;5009856;28;21001;-73
2022/04/05 02:21:49;;;;;;;11.80;7.67;;;6.40;99.90;;;;;;5019657;28;20476;-73
2022/04/05 02:24:35;;;;;;;12.80;7.63;;;6.40;99.90;;;;;;5020099;28;20523;-72
2022/04/05 02:27:20;;;;;;;12.88;7.45;;;6.40;99.90;;;;;;5018437;28;20609;-73
2022/04/05 02:30:07;;;;;;;9.13;7.50;;;6.50;99.90;;;;;;5013577;28;20207;-73
2022/04/05 02:32:54;;;;;;;10.80;8.03;;;6.50;99.90;;;;;;5021660;28;20428;-73
2022/04/05 02:35:40;;;;;;;13.13;7.77;;;6.50;99.90;;;;;;5025562;28;20421;-73
2022/04/05 02:38:26;;;;;;;9.97;7.40;;;6.50;99.90;;;;;;5016639;28;20551;-73
2022/04/05 02:41:11;;;;;;;9.70;7.37;;;6.60;99.90;;;;;;5019243;28;21014;-72
2022/04/05 02:43:58;;;;;;;10.67;7.90;;;6.60;99.90;;;;;;5014323;28;20465;-73
2022/04/05 02:46:44;;;;;;;12.60;7.30;;;6.70;99.90;;;;;;5019371;28;20444;-73
2022/04/05 02:49:31;;;;;;;7.60;6.80;;;6.70;99.90;;;;;;5015958;28;20532;-71
2022/04/05 02:52:17;;;;;;;8.10;6.63;;;6.60;99.90;;;;;;5024885;28;20894;-73
2022/04/05 02:55:03;;;;;;;9.40;7.50;;;6.60;99.90;;;;;;5015315;28;20421;-73
2022/04/05 02:57:50;;;;;;;9.60;7.63;;;6.60;99.90;;;;;;5011887;28;20472;-73
2022/04/05 03:00:36;;;;;;;12.10;7.80;;;6.60;99.90;;;;;;5019268;28;20460;-73
2022/04/05 03:03:22;;;;;;;9.40;7.83;;;6.60;99.90;;;;;;5021124;28;20553;-73
2022/04/05 03:06:10;;;;;;;9.33;6.70;;;6.60;99.90;;;;;;5010523;28;20475;-73
2022/04/05 03:08:58;;;;;;;10.20;7.60;;;6.70;99.90;;;;;;5018491;28;20516;-73
2022/04/05 03:11:43;;;;;;;10.73;7.50;;;6.70;99.90;;;;;;5019382;28;20421;-73
2022/04/05 03:14:29;;;;;;;8.83;6.80;;;6.60;99.90;;;;;;5016172;28;20444;-73
2022/04/05 03:17:15;;;;;;;10.13;7.90;;;6.50;99.90;;;;;;5014290;28;20477;-72
2022/04/05 03:20:01;;;;;;;12.00;7.33;;;6.50;99.90;;;;;;5017166;28;20430;-73
2022/04/05 03:22:48;;;;;;;11.57;7.83;;;6.50;99.90;;;;;;5011672;28;20777;-73
2022/04/05 03:25:34;;;;;;;8.97;7.17;;;6.50;99.90;;;;;;5015805;28;20922;-73
2022/04/05 03:28:20;;;;;;;9.60;7.57;;;6.50;99.90;;;;;;5006468;28;20550;-73
2022/04/05 03:31:06;;;;;;;14.23;7.00;;;6.60;99.90;;;;;;5021548;28;20421;-73
2022/04/05 03:33:52;;;;;;;9.50;7.80;;;6.60;99.90;;;;;;5017967;28;20428;-73
2022/04/05 03:36:38;;;;;;;11.17;6.87;;;6.50;99.90;;;;;;5018124;28;20505;-73
2022/04/05 03:39:25;;;;;;;8.87;7.30;;;6.60;99.90;;;;;;5015127;28;20445;-73
2022/04/05 03:42:11;;;;;;;12.40;7.47;;;6.60;99.90;;;;;;5019958;28;20531;-73
2022/04/05 03:44:56;;;;;;;10.10;7.80;;;6.60;99.90;;;;;;5013058;28;20441;-73
2022/04/05 03:47:42;;;;;;;18.73;7.60;;;6.70;99.90;;;;;;5009006;28;20518;-73
2022/04/05 03:50:28;;;;;;;9.83;7.13;;;6.70;99.90;;;;;;5025517;28;20455;-73
2022/04/05 03:53:14;;;;;;;8.47;6.40;;;6.70;99.90;;;;;;5014886;28;20395;-72
2022/04/05 03:56:01;;;;;;;11.43;7.83;;;6.60;99.90;;;;;;5012977;28;20612;-73
2022/04/05 03:58:47;;;;;;;7.90;6.20;;;6.60;99.90;;;;;;5015975;28;20449;-73
2022/04/05 04:01:32;;;;;;;10.30;6.33;;;6.70;99.90;;;;;;5017337;28;20576;-73
2022/04/05 04:04:18;;;;;;;7.63;6.70;;;6.70;99.90;;;;;;5020119;28;20554;-72
2022/04/05 04:07:04;;;;;;;9.57;6.40;;;6.70;99.90;;;;;;5008397;28;20469;-73
2022/04/05 04:09:51;;;;;;;9.27;7.50;;;6.70;99.90;;;;;;5014897;28;20812;-73
2022/04/05 04:12:38;;;;;;;9.27;6.77;;;6.70;99.90;;;;;;5020977;28;20451;-73
2022/04/05 04:15:24;;;;;;;11.03;6.87;;;6.60;99.90;;;;;;5018245;28;20871;-73
2022/04/05 04:18:10;;;;;;;8.90;6.73;;;6.60;99.90;;;;;;5007676;28;20540;-73
2022/04/05 04:20:56;;;;;;;11.90;6.13;;;6.50;99.90;;;;;;5020794;28;20544;-73
2022/04/05 04:23:42;;;;;;;6.97;6.03;;;6.60;99.90;;;;;;5014176;28;20425;-73
2022/04/05 04:26:27;;;;;;;9.40;7.07;;;6.60;99.90;;;;;;5012081;28;20625;-73
2022/04/05 04:29:14;;;;;;;10.80;7.53;;;6.50;99.90;;;;;;5016732;28;20445;-72
2022/04/05 04:32:00;;;;;;;9.00;6.70;;;6.60;99.90;;;;;;5019101;28;20504;-73
2022/04/05 04:34:46;;;;;;;7.87;6.63;;;6.60;99.90;;;;;;5024598;28;20423;-73
2022/04/05 04:37:32;;;;;;;10.20;7.43;;;6.60;99.90;;;;;;5012264;28;21167;-73
2022/04/05 04:40:18;;;;;;;10.27;6.87;;;6.50;99.90;;;;;;5026061;28;20440;-73
2022/04/05 04:43:04;;;;;;;12.70;7.40;;;6.50;99.90;;;;;;5012066;28;20449;-73
2022/04/05 04:45:51;;;;;;;10.47;7.80;;;6.50;99.90;;;;;;5020943;28;20424;-72
2022/04/05 04:48:37;;;;;;;9.80;7.03;;;6.50;99.90;;;;;;5016887;28;20448;-73
2022/04/05 04:51:23;;;;;;;10.60;7.43;;;6.60;99.90;;;;;;5016058;28;20436;-73
2022/04/05 04:54:08;;;;;;;9.10;7.10;;;6.60;99.90;;;;;;5020740;28;20763;-73
2022/04/05 04:56:54;;;;;;;15.20;8.10;;;6.60;99.90;;;;;;5008678;28;20472;-73
2022/04/05 04:59:40;;;;;;;12.50;7.67;;;6.50;99.90;;;;;;5009707;28;20927;-72
2022/04/05 05:02:27;;;;;;;12.90;8.80;;;6.50;99.90;;;;;;5015602;28;21079;-73
2022/04/05 05:05:14;;;;;;;13.80;8.43;;;6.50;99.90;;;;;;5008776;28;20504;-73
2022/04/05 05:08:00;;;;;;;10.00;8.23;;;6.40;99.90;;;;;;5011479;28;20477;-73
2022/04/05 05:10:45;;;;;;;12.70;8.77;;;6.30;99.90;;;;;;5021416;28;20497;-73
2022/04/05 05:13:32;;;;;;;13.17;9.37;;;6.20;99.90;;;;;;5014811;28;20434;-73
2022/04/05 05:16:17;;;;;;;19.93;9.23;;;6.30;99.90;;;;;;5012044;28;20461;-73
2022/04/05 05:19:05;;;;;;;10.90;8.57;;;6.30;99.90;;;;;;5018690;28;20503;-73
2022/04/05 05:21:50;;;;;;;10.63;8.37;;;6.30;99.90;;;;;;5011125;28;20456;-73
2022/04/05 05:24:36;;;;;;;11.80;8.60;;;6.30;99.90;;;;;;5008745;28;20515;-73
2022/04/05 05:27:21;;;;;;;8.60;7.60;;;6.40;99.90;;;;;;5008025;28;20469;-73
2022/04/05 05:30:09;;;;;;;10.17;8.50;;;6.50;99.90;;;;;;5019423;28;20420;-73
2022/04/05 05:32:55;;;;;;;19.52;10.63;;;6.50;99.90;;;;;;5014597;28;20487;-73
2022/04/05 05:35:42;;;;;;;12.23;8.70;;;6.40;99.90;;;;;;5017194;28;20201;-73
2022/04/05 05:38:28;;;;;;;8.60;6.97;;;6.40;99.90;;;;;;5017148;28;20473;-73
2022/04/05 05:41:14;;;;;;;13.03;8.80;;;6.50;99.90;;;;;;5029508;28;20475;-73
2022/04/05 05:44:00;;;;;;;10.33;8.40;;;6.40;99.90;;;;;;5028258;28;20421;-73
2022/04/05 05:46:46;;;;;;;13.37;9.30;;;6.20;99.90;;;;;;5010570;28;20479;-73
2022/04/05 05:49:32;;;;;;;9.43;7.80;;;6.20;99.90;;;;;;5017057;28;20470;-74
2022/04/05 05:52:19;;;;;;;11.50;8.23;;;6.20;99.90;;;;;;5024275;28;20496;-73
2022/04/05 05:55:06;;;;;;;19.63;9.37;;;6.20;99.90;;;;;;5026337;28;20418;-73
2022/04/05 05:57:51;;;;;;;13.30;8.00;;;6.20;99.90;;;;;;5021823;28;20492;-72
2022/04/05 06:00:38;;;;;;;14.63;9.57;;;6.20;99.90;;;;;;5027777;28;20433;-73
2022/04/05 06:03:23;;;;;;;12.40;10.10;;;6.20;99.90;;;;;;5021440;28;20416;-73
2022/04/05 06:06:09;;;;;;;11.20;9.17;;;6.20;99.90;;;;;;5019142;28;20457;-73
2022/04/05 06:08:56;;;;;;;14.70;11.30;;;6.20;99.90;;;;;;5019460;28;20456;-73
2022/04/05 06:11:42;;;;;;;14.03;9.60;;;6.30;99.90;;;;;;5023240;28;20998;-74
2022/04/05 06:14:28;;;;;;;15.53;9.80;;;6.20;99.90;;;;;;5026168;28;20999;-73
2022/04/05 06:17:13;;;;;;;14.70;9.90;;;6.30;99.90;;;;;;5022344;28;20461;-73
2022/04/05 06:19:59;;;;;;;12.77;9.63;;;6.40;99.90;;;;;;5020687;28;20425;-72
2022/04/05 06:22:45;;;;;;;11.03;8.60;;;6.40;99.90;;;;;;5021931;28;20475;-74
2022/04/05 06:25:34;;;;;;;11.40;9.93;;;6.30;99.90;;;;;;5023890;28;20532;-74
2022/04/05 06:28:20;;;;;;;14.17;10.57;;;6.40;99.90;;;;;;5028892;28;20824;-73
2022/04/05 06:31:06;;;;;;;12.07;8.93;;;6.30;99.90;;;;;;5026020;28;20414;-72
2022/04/05 06:33:52;;;;;;;11.33;9.50;;;6.40;99.90;;;;;;5027282;28;20433;-74
2022/04/05 06:36:38;;;;;;;14.70;9.87;;;6.40;99.90;;;;;;5015680;28;20492;-73
2022/04/05 06:39:25;;;;;;;16.90;10.70;;;6.40;99.90;;;;;;5031416;28;20454;-73
2022/04/05 06:42:12;;;;;;;16.30;8.20;;;6.50;99.90;;;;;;5026734;28;20467;-73
2022/04/05 06:44:58;;;;;;;13.07;10.20;;;6.40;99.90;;;;;;5019871;28;20864;-75
2022/04/05 06:47:43;;;;;;;12.20;9.70;;;6.50;99.90;;;;;;5027540;28;20445;-74
2022/04/05 06:50:29;;;;;;;11.23;8.73;;;6.60;99.90;;;;;;5028748;28;20428;-73
2022/04/05 06:53:15;;;;;;;11.13;9.20;;;6.50;99.90;;;;;;5025783;28;20417;-73
2022/04/05 06:56:01;;;;;;;15.40;9.10;;;6.40;99.90;;;;;;5014718;28;20457;-73
2022/04/05 06:58:48;;;;;;;12.23;9.90;;;6.40;99.90;;;;;;5019432;28;20441;-73
2022/04/05 07:01:35;;;;;;;11.13;9.57;;;6.40;99.90;;;;;;5027294;28;20488;-73
2022/04/05 07:04:21;;;;;;;15.23;9.43;;;6.50;99.90;;;;;;5023676;28;20451;-73
2022/04/05 07:07:06;;;;;;;17.20;11.30;;;6.50;99.90;;;;;;5025356;28;20464;-73
2022/04/05 07:09:52;;;;;;;13.10;9.17;;;6.40;99.90;;;;;;5016850;28;20446;-72
2022/04/05 07:12:38;;;;;;;13.77;9.97;;;6.40;99.90;;;;;;5018315;28;20499;-72
2022/04/05 07:15:25;;;;;;;12.17;9.80;;;6.40;99.90;;;;;;5016472;28;20652;-73
2022/04/05 07:18:11;;;;;;;12.10;9.60;;;6.30;99.90;;;;;;5014291;28;20472;-73
2022/04/05 07:20:56;;;;;;;16.77;10.93;;;6.30;99.90;;;;;;5012807;28;20489;-74
2022/04/05 07:23:44;;;;;;;13.13;11.03;;;6.30;99.90;;;;;;5015316;28;20450;-72
2022/04/05 07:26:30;;;;;;;13.00;9.83;;;6.30;99.90;;;;;;5011201;28;20600;-73
2022/04/05 07:29:16;;;;;;;18.30;10.20;;;6.40;99.90;;;;;;5011152;28;20448;-73
2022/04/05 07:32:03;;;;;;;16.20;9.80;;;6.40;99.90;;;;;;5012409;28;20444;-73
2022/04/05 07:34:49;;;;;;;10.50;9.30;;;6.40;99.90;;;;;;5007941;28;20998;-73
2022/04/05 07:37:35;;;;;;;17.27;10.27;;;6.40;99.90;;;;;;5017884;28;20488;-73
2022/04/05 07:40:21;;;;;;;13.20;8.23;;;6.40;99.90;;;;;;5015097;28;20448;-72
2022/04/05 07:43:07;;;;;;;11.67;9.83;;;6.40;99.90;;;;;;5018692;28;20998;-73
2022/04/05 07:45:52;;;;;;;14.10;9.97;;;6.40;99.90;;;;;;5012135;28;20445;-71
2022/04/05 07:48:40;;;;;;;12.47;9.77;;;6.40;99.90;;;;;;5020090;28;20429;-73
2022/04/05 07:51:27;;;;;;;14.97;9.57;;;6.40;99.90;;;;;;5013312;28;20517;-73
2022/04/05 07:54:12;;;;;;;12.67;9.83;;;6.20;99.90;;;;;;5013664;28;20449;-73
2022/04/05 07:57:00;;;;;;;13.27;10.90;;;6.30;99.90;;;;;;5016729;28;20820;-71
2022/04/05 07:59:46;;;;;;;14.73;10.30;;;6.30;99.90;;;;;;5021693;28;20427;-71
2022/04/05 08:02:31;;;;;;;12.37;9.17;;;6.40;99.90;;;;;;5018139;28;20560;-71
2022/04/05 08:05:19;;;;;;;12.87;10.80;;;6.20;99.90;;;;;;5012543;28;20429;-71
2022/04/05 08:08:06;;;;;;;11.90;9.07;;;6.20;99.90;;;;;;5008195;28;20548;-72
2022/04/05 08:10:51;;;;;;;14.80;9.67;;;6.10;99.90;;;;;;5016391;28;20890;-72
2022/04/05 08:13:37;;;;;;;13.93;10.90;;;6.20;99.90;;;;;;5008739;28;20562;-72
2022/04/05 08:16:22;;;;;;;22.60;9.90;;;6.30;99.90;;;;;;5011081;28;20929;-72
2022/04/05 08:19:09;;;;;;;19.17;9.80;;;6.30;99.90;;;;;;5005484;28;20632;-73
2022/04/05 08:21:57;;;;;;;12.37;8.80;;;6.40;99.90;;;;;;5008514;28;20469;-72
2022/04/05 08:24:42;;;;;;;12.73;8.90;;;6.40;99.90;;;;;;5006086;28;20464;-73
2022/04/05 08:27:28;;;;;;;12.70;9.40;;;6.50;99.90;;;;;;5011695;28;20528;-72
2022/04/05 08:30:17;;;;;;;13.43;10.90;;;6.40;99.90;;;;;;5002205;28;20475;-74
2022/04/05 08:33:03;;;;;;;12.90;9.57;;;6.50;99.90;;;;;;5012290;28;20437;-72
2022/04/05 08:35:48;;;;;;;11.30;9.13;;;6.60;99.90;;;;;;5011475;28;20994;-72
2022/04/05 08:38:35;;;;;;;12.37;9.17;;;6.50;99.90;;;;;;5015986;28;20444;-73
2022/04/05 08:41:25;;;;;;;17.50;9.87;;;6.50;99.90;;;;;;5010046;28;20541;-73
2022/04/05 08:44:12;;;;;;;12.07;9.67;;;6.40;99.90;;;;;;5005933;28;20478;-71
2022/04/05 08:47:00;;;;;;;13.40;8.80;;;6.40;99.90;;;;;;5008960;28;20560;-75
2022/04/05 08:49:46;;;;;;;10.90;9.20;;;6.40;99.90;;;;;;5001170;28;20962;-72
2022/04/05 08:52:34;;;;;;;12.90;9.80;;;6.50;99.90;;;;;;5009612;28;20465;-72
2022/04/05 08:55:22;;;;;;;14.87;9.93;;;6.50;99.90;;;;;;4998271;28;20499;-72
2022/04/05 08:58:07;;;;;;;13.77;10.03;;;6.40;99.90;;;;;;5005148;28;20492;-72
2022/04/05 09:00:54;;;;;;;13.00;10.53;;;6.40;99.90;;;;;;5001882;28;20501;-72
2022/04/05 09:03:39;;;;;;;15.13;10.50;;;6.50;99.90;;;;;;5005864;28;20981;-73
2022/04/05 09:06:27;;;;;;;10.10;8.57;;;6.50;99.90;;;;;;5016490;28;21002;-72
2022/04/05 09:09:16;;;;;;;14.67;9.93;;;6.40;99.90;;;;;;5011928;28;20494;-72
2022/04/05 09:12:16;;;;;;;13.10;10.13;;;6.50;99.90;;;;;;5008605;28;20449;-73
2022/04/05 09:15:01;;;;;;;15.40;10.50;;;6.60;99.90;;;;;;5007717;28;20453;-72
2022/04/05 09:17:48;;;;;;;12.37;9.43;;;6.60;99.90;;;;;;5010623;28;20469;-72
2022/04/05 09:20:46;;;;;;;12.37;9.80;;;6.60;99.90;;;;;;5012121;28;20416;-75
2022/04/05 09:23:34;;;;;;;13.97;9.70;;;6.70;99.90;;;;;;5005172;28;21217;-74
2022/04/05 09:26:22;;;;;;;19.17;10.83;;;6.70;99.90;;;;;;5009176;28;20455;-72
2022/04/05 09:29:09;;;;;;;12.30;10.00;;;6.80;99.90;;;;;;5011629;28;20584;-72
2022/04/05 09:31:55;;;;;;;16.07;9.70;;;6.80;99.90;;;;;;5008329;28;20434;-74
2022/04/05 09:34:49;;;;;;;13.07;10.10;;;6.90;99.90;;;;;;5006568;28;20436;-72
2022/04/05 09:37:38;;;;;;;11.70;9.80;;;6.80;99.90;;;;;;5014018;28;20452;-72
2022/04/05 09:40:32;;;;;;;13.63;9.77;;;6.80;99.90;;;;;;5020536;28;20436;-73
2022/04/05 09:43:17;;;;;;;12.70;9.40;;;6.70;99.90;;;;;;5015806;28;20810;-73
2022/04/05 09:46:05;;;;;;;13.90;9.90;;;6.70;99.90;;;;;;5010893;28;20926;-73
2022/04/05 09:49:03;;;;;;;14.80;10.30;;;6.80;99.90;;;;;;5008636;28;20815;-72
2022/04/05 09:51:49;;;;;;;12.53;9.60;;;6.90;99.90;;;;;;5007533;28;20472;-73
2022/04/05 09:54:36;;;;;;;13.57;10.20;;;6.90;99.90;;;;;;5003257;28;20426;-72
2022/04/05 09:57:30;;;;;;;15.53;10.07;;;7.00;99.90;;;;;;5011859;28;20811;-72
2022/04/05 10:00:18;;;;;;;16.77;10.37;;;6.80;99.90;;;;;;5010142;28;20515;-74
2022/04/05 10:03:06;;;;;;;14.80;9.60;;;6.90;99.90;;;;;;5012956;28;20488;-74
2022/04/05 10:05:54;;;;;;;13.23;9.37;;;6.90;99.90;;;;;;5008444;28;20445;-72
2022/04/05 10:08:41;;;;;;;13.93;9.97;;;6.90;99.90;;;;;;5013947;28;20584;-73
2022/04/05 10:11:28;;;;;;;15.50;9.37;;;6.90;99.90;;;;;;5004092;28;20529;-73
2022/04/05 10:14:20;;;;;;;14.93;9.90;;;6.90;99.90;;;;;;5004181;28;20559;-72
2022/04/05 10:17:06;;;;;;;13.30;10.13;;;7.10;99.90;;;;;;5004207;28;20473;-72
2022/04/05 10:19:55;;;;;;;12.70;10.30;;;7.20;99.90;;;;;;5010624;28;21036;-72
2022/04/05 10:22:41;;;;;;;13.90;9.70;;;7.10;99.90;;;;;;5002147;28;21044;-72
2022/04/05 10:25:27;;;;;;;14.27;9.77;;;7.20;99.90;;;;;;5001195;28;20439;-72
2022/04/05 10:28:16;;;;;;;12.27;9.90;;;7.20;99.90;;;;;;5006387;28;20469;-71
2022/04/05 10:31:11;;;;;;;14.80;9.47;;;7.30;99.90;;;;;;5005653;28;20442;-72
2022/04/05 10:34:08;;;;;;;13.43;9.87;;;7.30;99.90;;;;;;5010644;28;20441;-72
2022/04/05 10:37:17;;;;;;;13.07;10.63;;;7.40;99.90;;;;;;5006629;28;20485;-71
2022/04/05 10:40:15;;;;;;;13.47;10.33;;;7.50;99.90;;;;;;5013003;28;20441;-72
2022/04/05 10:43:16;;;;;;;16.90;10.67;;;7.60;99.90;;;;;;5005796;28;20482;-75
2022/04/05 10:46:02;;;;;;;14.30;10.73;;;7.50;99.90;;;;;;5011973;28;20465;-72
2022/04/05 10:48:59;;;;;;;14.27;10.20;;;7.60;99.90;;;;;;5008373;28;20449;-72
2022/04/05 10:52:10;;;;;;;12.27;9.20;;;7.60;99.90;;;;;;5006343;28;20458;-72
2022/04/05 10:55:11;;;;;;;17.73;10.40;;;7.50;99.90;;;;;;5007961;28;21045;-74
2022/04/05 10:58:10;;;;;;;11.83;8.53;;;7.60;99.90;;;;;;5014323;28;20466;-74
2022/04/05 11:01:13;;;;;;;14.23;8.90;;;7.70;99.90;;;;;;5006998;28;20473;-74
2022/04/05 11:04:29;;;;;;;11.50;8.97;;;7.70;99.90;;;;;;5008964;28;20978;-73
2022/04/05 11:07:14;;;;;;;10.47;8.67;;;7.80;99.90;;;;;;5010375;28;20508;-73
2022/04/05 11:10:00;;;;;;;12.00;8.83;;;7.90;99.90;;;;;;5004239;28;20997;-72
2022/04/05 11:12:48;;;;;;;10.33;8.97;;;8.00;99.90;;;;;;5005813;28;20520;-73
2022/04/05 11:15:41;;;;;;;10.40;8.50;;;8.10;99.90;;;;;;5009872;28;20909;-73
2022/04/05 11:18:29;;;;;;;11.83;8.57;;;8.00;99.90;;;;;;5016865;28;20517;-71
2022/04/05 11:21:15;;;;;;;18.20;9.27;;;8.00;99.90;;;;;;5009481;28;20442;-73
2022/04/05 11:24:00;;;;;;;14.93;9.00;;;8.00;99.90;;;;;;5002057;28;20584;-71
2022/04/05 11:26:46;;;;;;;12.00;7.97;;;8.10;99.90;;;;;;5009009;28;21005;-72
2022/04/05 11:29:33;;;;;;;14.17;8.73;;;8.10;99.90;;;;;;5009937;28;21259;-72
2022/04/05 11:32:19;;;;;;;12.47;8.77;;;8.00;99.90;;;;;;5006065;28;20509;-73
2022/04/05 11:35:05;;;;;;;12.40;8.67;;;8.10;99.90;;;;;;5005185;28;20444;-72
2022/04/05 11:37:51;;;;;;;13.77;9.10;;;8.10;99.90;;;;;;5007814;28;20844;-72
2022/04/05 11:40:41;;;;;;;11.17;7.90;;;8.00;99.90;;;;;;5005570;28;20445;-73
2022/04/05 11:43:28;;;;;;;13.43;9.20;;;8.10;99.90;;;;;;5008667;28;21027;-72
2022/04/05 11:46:17;;;;;;;12.13;9.00;;;8.00;99.90;;;;;;5004442;28;20460;-72
2022/04/05 11:49:06;;;;;;;13.43;8.00;;;8.10;99.90;;;;;;5005073;28;20525;-72
2022/04/05 11:51:52;;;;;;;11.77;8.80;;;8.10;99.90;;;;;;5007226;28;20462;-72
2022/04/05 11:56:00;;;;;;;11.27;9.53;;;8.10;99.90;;;;;;5007675;28;21187;-72
2022/04/05 11:57:45;;;;;;;12.50;7.93;;;8.10;99.90;;;;;;5008051;28;20557;-72
2022/04/05 12:00:33;;;;;;;10.27;8.00;;;8.20;99.90;;;;;;5005431;28;20712;-72
2022/04/05 12:03:20;;;;;;;11.07;7.63;;;8.20;99.90;;;;;;5009362;28;20463;-72
2022/04/05 12:06:06;;;;;;;11.27;7.70;;;8.20;99.90;;;;;;5002441;28;20536;-72
2022/04/05 12:08:53;;;;;;;12.20;9.20;;;8.30;99.90;;;;;;5009063;28;20448;-72
2022/04/05 12:11:41;;;;;;;10.27;8.50;;;8.30;99.90;;;;;;5006720;28;20446;-72
2022/04/05 12:14:29;;;;;;;8.67;7.77;;;8.30;99.90;;;;;;5003150;28;20448;-72
2022/04/05 12:17:15;;;;;;;9.37;7.53;;;8.30;99.90;;;;;;5004847;28;20560;-72
2022/04/05 12:20:04;;;;;;;10.20;7.43;;;8.30;99.90;;;;;;5008528;28;20775;-72
2022/04/05 12:22:50;;;;;;;12.13;9.70;;;8.40;99.90;;;;;;5004431;28;20478;-72
2022/04/05 12:25:35;;;;;;;12.10;9.20;;;8.50;99.90;;;;;;5004790;28;20486;-72
2022/04/05 12:28:23;;;;;;;11.07;9.10;;;8.50;99.90;;;;;;5008482;28;20474;-71
2022/04/05 12:31:10;;;;;;;9.37;8.07;;;8.50;99.90;;;;;;4998340;28;20472;-72
2022/04/05 12:33:59;;;;;;;11.50;8.80;;;8.50;99.90;;;;;;5008180;28;20516;-72
2022/04/05 12:36:47;;;;;;;12.50;9.63;;;8.50;99.90;;;;;;5004251;28;20621;-72
2022/04/05 12:39:41;;;;;;;11.30;8.80;;;8.40;99.90;;;;;;5005482;28;20973;-72
2022/04/05 12:42:27;;;;;;;12.40;9.50;;;8.40;99.90;;;;;;5007836;28;20438;-72
2022/04/05 12:45:13;;;;;;;10.00;8.37;;;8.40;99.90;;;;;;5003401;28;20446;-72
2022/04/05 12:47:58;;;;;;;14.50;10.37;;;8.40;99.90;;;;;;5007028;28;20445;-72
2022/04/05 12:50:45;;;;;;;15.53;9.10;;;8.40;99.90;;;;;;5005814;28;20582;-72
2022/04/05 12:53:37;;;;;;;12.93;9.70;;;8.40;99.90;;;;;;5005532;28;20449;-72
2022/04/05 12:56:32;;;;;;;13.00;8.77;;;8.40;99.90;;;;;;5004781;28;20481;-72
2022/04/05 12:59:25;;;;;;;10.23;8.93;;;8.40;99.90;;;;;;5001786;28;20425;-72
2022/04/05 13:02:17;;;;;;;15.90;8.33;;;8.40;99.90;;;;;;5007154;28;20453;-72
2022/04/05 13:08:13;;;;;;;11.33;9.10;;;8.40;99.90;;;;;;5009102;28;20868;-72
2022/04/05 13:11:00;;;;;;;11.50;8.73;;;8.50;99.90;;;;;;5004815;28;20533;-72
2022/04/05 13:13:46;;;;;;;11.07;9.87;;;8.50;99.90;;;;;;4997226;28;20444;-72
2022/04/05 13:16:32;;;;;;;11.27;9.47;;;8.60;99.90;;;;;;5000023;28;20470;-72
2022/04/05 13:19:20;;;;;;;10.40;8.73;;;8.50;99.90;;;;;;5002860;28;20473;-72
2022/04/05 13:22:14;;;;;;;11.13;9.33;;;8.50;99.90;;;;;;5005201;28;20434;-72
2022/04/05 13:25:03;;;;;;;11.03;8.80;;;8.40;99.90;;;;;;5006421;28;20466;-72
2022/04/05 13:28:01;;;;;;;11.80;9.57;;;8.40;99.90;;;;;;5005923;28;20472;-72
2022/04/05 13:30:48;;;;;;;11.60;9.37;;;8.50;99.90;;;;;;5001681;28;20451;-72
2022/04/05 13:33:34;;;;;;;12.60;9.77;;;8.40;99.90;;;;;;5002268;28;20445;-72
2022/04/05 13:36:21;;;;;;;15.00;9.83;;;8.40;99.90;;;;;;5001198;28;20462;-72
2022/04/05 13:39:07;;;;;;;12.53;11.17;;;8.40;99.90;;;;;;5006081;28;20786;-72
2022/04/05 13:41:52;;;;;;;15.80;11.20;;;8.30;99.90;;;;;;5003533;28;20441;-72
2022/04/05 13:44:40;;;;;;;14.47;11.23;;;8.30;99.90;;;;;;5001962;28;20513;-72
2022/04/05 13:47:25;;;;;;;15.53;12.37;;;8.40;99.90;;;;;;5005700;28;20537;-73
2022/04/05 13:50:11;;;;;;;16.90;12.10;;;8.40;99.90;;;;;;5003244;28;20540;-72
2022/04/05 13:52:57;;;;;;;14.07;11.27;;;8.40;99.90;;;;;;5008866;28;20442;-72
2022/04/05 13:55:44;;;;;;;15.17;11.90;;;8.40;99.90;;;;;;5010839;28;20866;-72
2022/04/05 13:58:29;;;;;;;15.80;12.10;;;8.30;99.90;;;;;;5006273;28;20485;-72
2022/04/05 14:01:16;;;;;;;17.10;12.17;;;8.40;99.90;;;;;;5003474;28;20473;-72
2022/04/05 14:04:02;;;;;;;14.13;11.77;;;8.40;99.90;;;;;;5013083;28;20447;-72
2022/04/05 14:06:47;;;;;;;15.17;12.27;;;8.30;99.90;;;;;;5007303;28;20478;-72
2022/04/05 14:09:33;;;;;;;14.47;11.90;;;8.30;99.90;;;;;;5005377;28;20955;-72
2022/04/05 14:12:18;;;;;;;15.60;12.40;;;8.40;99.90;;;;;;5008103;28;20457;-72
2022/04/05 14:15:05;;;;;;;17.13;12.30;;;8.40;99.90;;;;;;5006182;28;20459;-72
2022/04/05 14:17:52;;;;;;;15.73;11.70;;;8.40;99.90;;;;;;5005525;28;20460;-72
2022/04/05 14:20:38;;;;;;;15.77;11.97;;;8.40;99.90;;;;;;5005436;28;20457;-72
2022/04/05 14:23:23;;;;;;;14.07;11.10;;;8.30;99.90;;;;;;5005754;28;20442;-72
2022/04/05 14:26:09;;;;;;;17.03;12.23;;;8.40;99.90;;;;;;5008121;28;20460;-72
2022/04/05 14:28:56;;;;;;;13.00;11.30;;;8.40;99.90;;;;;;5008951;28;20449;-72
2022/04/05 14:31:43;;;;;;;13.60;11.60;;;8.40;99.90;;;;;;5006232;28;20530;-72